Time;durP1;ratioP1;P1;durP2;ratioP2;P2;SDS_P1;SDS_P2;PMS_P1;PMS_P2;Temp;Humidity;BMP_temperature;BMP_pressure;BME280_temperature;BME280_humidity;BME280_pressure;Samples;Min_cycle;Max_cycle;Signal;HPM_P1;HPM_P2
2023/06/07 00:02:44;;;;;;;10.00;2.75;;;12.40;99.90;;;;;;4952299;29;20055;-76
2023/06/07 00:05:31;;;;;;;11.35;2.90;;;12.30;99.90;;;;;;4954381;28;20141;-78
2023/06/07 00:08:18;;;;;;;13.20;3.50;;;12.30;99.90;;;;;;4953183;28;20607;-74
2023/06/07 00:11:05;;;;;;;8.52;2.90;;;12.30;99.90;;;;;;4935948;29;20055;-75
2023/06/07 00:13:51;;;;;;;15.82;2.97;;;12.30;99.90;;;;;;4952947;28;20055;-75
2023/06/07 00:16:37;;;;;;;12.00;3.28;;;12.40;99.90;;;;;;4937269;28;20134;-76
2023/06/07 00:19:25;;;;;;;16.90;3.42;;;12.30;99.90;;;;;;4954281;28;20124;-75
2023/06/07 00:22:12;;;;;;;13.55;3.28;;;12.40;99.90;;;;;;4952786;28;20055;-75
2023/06/07 00:24:58;;;;;;;12.57;3.35;;;12.40;99.90;;;;;;4952558;29;20090;-74
2023/06/07 00:27:44;;;;;;;18.13;3.40;;;12.40;99.90;;;;;;4951847;28;20047;-75
2023/06/07 00:30:30;;;;;;;9.77;3.03;;;12.40;99.90;;;;;;4953908;28;20062;-76
2023/06/07 00:33:16;;;;;;;18.52;4.03;;;12.40;99.90;;;;;;4953129;28;20053;-75
2023/06/07 00:36:02;;;;;;;13.80;2.70;;;12.40;99.90;;;;;;4952754;28;20134;-79
2023/06/07 00:38:50;;;;;;;15.48;3.38;;;12.40;99.90;;;;;;4952951;28;20070;-79
2023/06/07 00:41:36;;;;;;;16.58;2.90;;;12.40;99.90;;;;;;4953820;28;20054;-77
2023/06/07 00:44:22;;;;;;;11.23;2.80;;;12.30;99.90;;;;;;4953818;28;20066;-76
2023/06/07 00:47:08;;;;;;;11.68;2.58;;;12.40;99.90;;;;;;4953180;28;20047;-78
2023/06/07 00:49:55;;;;;;;16.83;3.38;;;12.30;99.90;;;;;;4953253;28;20047;-79
2023/06/07 00:52:42;;;;;;;11.40;3.03;;;12.30;99.90;;;;;;4953143;28;20051;-79
2023/06/07 00:55:28;;;;;;;8.88;2.70;;;12.30;99.90;;;;;;4936354;28;20051;-78
2023/06/07 00:58:15;;;;;;;15.18;2.97;;;12.30;99.90;;;;;;4953487;28;20522;-78
2023/06/07 01:01:02;;;;;;;15.82;3.10;;;12.30;99.90;;;;;;4952730;28;20051;-77
2023/06/07 01:03:48;;;;;;;16.35;3.67;;;12.40;99.90;;;;;;4952815;28;20059;-79
2023/06/07 01:06:34;;;;;;;15.80;3.15;;;12.30;99.90;;;;;;4951582;29;20442;-79
2023/06/07 01:09:21;;;;;;;15.80;3.10;;;12.30;99.90;;;;;;4953254;28;20142;-76
2023/06/07 01:12:15;;;;;;;13.55;3.22;;;12.40;99.90;;;;;;4955776;28;20074;-78
2023/06/07 01:15:03;;;;;;;13.65;3.20;;;12.30;99.90;;;;;;4938869;29;20055;-79
2023/06/07 01:17:51;;;;;;;15.00;2.88;;;12.30;99.90;;;;;;4940589;28;20067;-79
2023/06/07 01:20:39;;;;;;;18.65;3.03;;;12.30;99.90;;;;;;4956099;28;20051;-79
2023/06/07 01:23:32;;;;;;;12.43;3.78;;;12.30;99.90;;;;;;4956290;28;20066;-74
2023/06/07 01:26:19;;;;;;;13.60;3.58;;;12.30;99.90;;;;;;4956987;28;20051;-74
2023/06/07 01:29:06;;;;;;;18.13;3.70;;;12.30;99.90;;;;;;4956238;28;20055;-75
2023/06/07 01:31:55;;;;;;;17.35;2.72;;;12.30;99.90;;;;;;4955202;29;20047;-74
2023/06/07 01:34:41;;;;;;;10.23;2.95;;;12.40;99.90;;;;;;4939780;28;20046;-78
2023/06/07 01:37:29;;;;;;;13.75;3.10;;;12.30;99.90;;;;;;4957343;28;20058;-76
2023/06/07 01:40:16;;;;;;;10.85;2.80;;;12.40;99.90;;;;;;4940004;28;20070;-75
2023/06/07 01:43:03;;;;;;;14.52;3.20;;;12.40;99.90;;;;;;4956633;28;20061;-74
2023/06/07 01:45:51;;;;;;;14.80;3.53;;;12.40;99.90;;;;;;4954440;28;20562;-77
2023/06/07 01:48:37;;;;;;;14.10;3.08;;;12.40;99.90;;;;;;4955134;28;20058;-75
2023/06/07 01:51:23;;;;;;;13.40;2.58;;;12.40;99.90;;;;;;4955472;28;20047;-75
2023/06/07 01:54:10;;;;;;;19.38;3.22;;;12.40;99.90;;;;;;4954263;29;20059;-75
2023/06/07 01:57:20;;;;;;;18.77;2.97;;;12.40;99.90;;;;;;4956521;28;20134;-75
2023/06/07 02:00:21;;;;;;;11.45;3.05;;;12.50;99.90;;;;;;4939508;28;20110;-78
2023/06/07 02:03:28;;;;;;;13.57;2.45;;;12.50;99.90;;;;;;4955405;28;20058;-77
2023/06/07 02:06:30;;;;;;;9.85;2.92;;;12.50;99.90;;;;;;4939177;28;20110;-80
2023/06/07 02:09:22;;;;;;;12.35;2.67;;;12.40;99.90;;;;;;4955817;28;20047;-77
2023/06/07 02:12:10;;;;;;;19.80;5.03;;;12.40;99.90;;;;;;4955683;28;20059;-73
2023/06/07 02:14:58;;;;;;;16.92;3.45;;;12.30;99.90;;;;;;4956277;28;20051;-78
2023/06/07 02:18:04;;;;;;;13.68;3.08;;;12.30;99.90;;;;;;4955315;28;20111;-79
2023/06/07 02:20:50;;;;;;;16.30;2.97;;;12.30;99.90;;;;;;4954260;28;20055;-78
2023/06/07 02:23:37;;;;;;;14.48;2.35;;;12.30;99.90;;;;;;4955982;28;20066;-79
2023/06/07 02:26:25;;;;;;;13.25;3.30;;;12.30;99.90;;;;;;4955127;28;20102;-77
2023/06/07 02:29:11;;;;;;;14.38;3.38;;;12.30;99.90;;;;;;4956073;28;20051;-75
2023/06/07 02:32:00;;;;;;;14.23;3.30;;;12.30;99.90;;;;;;4955032;28;20050;-75
2023/06/07 02:34:47;;;;;;;13.80;3.28;;;12.40;99.90;;;;;;4954857;28;20114;-75
2023/06/07 02:37:34;;;;;;;16.85;3.47;;;12.30;99.90;;;;;;4955324;28;20126;-76
2023/06/07 02:40:20;;;;;;;12.45;4.07;;;12.30;99.90;;;;;;4954284;28;20067;-78
2023/06/07 02:43:06;;;;;;;16.90;4.15;;;12.30;99.90;;;;;;4938649;28;20193;-76
2023/06/07 02:45:53;;;;;;;16.27;3.00;;;12.30;99.90;;;;;;4953280;29;20054;-78
2023/06/07 02:48:39;;;;;;;11.48;2.47;;;12.20;99.90;;;;;;4954086;29;20716;-76
2023/06/07 02:51:26;;;;;;;13.13;2.75;;;12.30;99.90;;;;;;4955963;28;20553;-77
2023/06/07 02:54:13;;;;;;;15.52;3.45;;;12.30;99.90;;;;;;4954694;28;20098;-76
2023/06/07 02:56:59;;;;;;;12.35;3.00;;;12.30;99.90;;;;;;4954695;28;20134;-78
2023/06/07 02:59:45;;;;;;;12.95;3.15;;;12.30;99.90;;;;;;4954708;28;20047;-77
2023/06/07 03:02:31;;;;;;;13.38;2.78;;;12.30;99.90;;;;;;4953089;29;20063;-76
2023/06/07 03:05:18;;;;;;;11.98;3.17;;;12.30;99.90;;;;;;4954666;28;20043;-75
2023/06/07 03:08:05;;;;;;;11.60;2.70;;;12.30;99.90;;;;;;4954697;28;20409;-76
2023/06/07 03:10:51;;;;;;;14.80;3.38;;;12.30;99.90;;;;;;4954164;28;20055;-74
2023/06/07 03:13:37;;;;;;;13.73;2.90;;;12.30;99.90;;;;;;4936446;28;20051;-74
2023/06/07 03:16:23;;;;;;;12.55;2.80;;;12.20;99.90;;;;;;4953767;28;20059;-76
2023/06/07 03:19:09;;;;;;;13.63;2.67;;;12.30;99.90;;;;;;4937453;28;20067;-75
2023/06/07 03:21:55;;;;;;;10.68;2.67;;;12.30;99.90;;;;;;4953792;28;20062;-74
2023/06/07 03:24:41;;;;;;;10.95;2.80;;;12.30;99.90;;;;;;4953888;28;20062;-74
2023/06/07 03:27:29;;;;;;;12.27;3.15;;;12.30;99.90;;;;;;4955426;28;20051;-76
2023/06/07 03:30:15;;;;;;;12.77;2.70;;;12.30;99.90;;;;;;4953578;28;20582;-75
2023/06/07 03:33:02;;;;;;;12.95;2.78;;;12.30;99.90;;;;;;4953703;28;20054;-76
2023/06/07 03:35:48;;;;;;;12.85;2.67;;;12.20;99.90;;;;;;4953242;28;20053;-73
2023/06/07 03:38:34;;;;;;;14.15;2.97;;;12.30;99.90;;;;;;4953856;28;20105;-75
2023/06/07 03:41:21;;;;;;;22.38;5.07;;;12.30;99.90;;;;;;4953551;28;20087;-74
2023/06/07 03:44:07;;;;;;;12.80;2.95;;;12.30;99.90;;;;;;4936348;28;20058;-74
2023/06/07 03:46:53;;;;;;;16.58;2.80;;;12.30;99.90;;;;;;4952418;29;20150;-74
2023/06/07 03:49:39;;;;;;;12.25;3.03;;;12.30;99.90;;;;;;4954445;28;20082;-74
2023/06/07 03:52:25;;;;;;;12.13;2.75;;;12.30;99.90;;;;;;4953691;28;20055;-77
2023/06/07 03:55:11;;;;;;;11.60;2.78;;;12.40;99.90;;;;;;4953688;28;20051;-74
2023/06/07 03:57:57;;;;;;;17.02;3.75;;;12.30;99.90;;;;;;4954573;28;20043;-74
2023/06/07 04:00:45;;;;;;;6.78;2.20;;;12.40;99.90;;;;;;4951725;28;20105;-77
2023/06/07 04:03:31;;;;;;;12.27;3.20;;;12.40;99.90;;;;;;4952201;29;20055;-76
2023/06/07 04:06:20;;;;;;;7.18;2.47;;;12.40;99.90;;;;;;4954033;28;20102;-74
2023/06/07 04:09:07;;;;;;;14.13;3.00;;;12.40;99.90;;;;;;4953141;28;20059;-74
2023/06/07 04:11:54;;;;;;;13.40;3.30;;;12.40;99.90;;;;;;4952947;28;20055;-79
2023/06/07 04:14:40;;;;;;;9.40;2.13;;;12.40;99.90;;;;;;4937494;28;20055;-76
2023/06/07 04:17:26;;;;;;;12.57;2.47;;;12.50;99.90;;;;;;4935746;29;20074;-78
2023/06/07 04:20:14;;;;;;;13.00;2.83;;;12.50;99.90;;;;;;4951738;29;20070;-77
2023/06/07 04:23:00;;;;;;;9.15;2.30;;;12.50;99.90;;;;;;4935626;29;20158;-77
2023/06/07 04:25:47;;;;;;;15.35;3.08;;;12.50;99.90;;;;;;4953133;28;20112;-77
2023/06/07 04:28:33;;;;;;;15.45;2.50;;;12.50;99.90;;;;;;4935142;29;20507;-78
2023/06/07 04:31:22;;;;;;;17.48;4.43;;;12.50;99.90;;;;;;4938922;28;20043;-78
2023/06/07 04:34:09;;;;;;;12.85;3.85;;;12.60;99.90;;;;;;4952712;28;20055;-75
2023/06/07 04:36:56;;;;;;;13.73;3.10;;;12.60;99.90;;;;;;4952823;28;20059;-77
2023/06/07 04:39:44;;;;;;;20.25;3.33;;;12.60;99.90;;;;;;4935486;29;20055;-77
2023/06/07 04:42:31;;;;;;;11.10;2.88;;;12.70;99.90;;;;;;4952467;28;20134;-78
2023/06/07 04:45:18;;;;;;;13.00;3.00;;;12.70;99.90;;;;;;4954154;28;20508;-77
2023/06/07 04:48:04;;;;;;;12.07;2.30;;;12.70;99.90;;;;;;4941666;29;20396;-77
2023/06/07 04:50:51;;;;;;;12.93;3.10;;;12.80;99.90;;;;;;4944264;29;20047;-76
2023/06/07 04:53:38;;;;;;;11.60;2.80;;;12.80;99.90;;;;;;4958743;28;20043;-77
2023/06/07 04:56:28;;;;;;;11.07;3.22;;;12.80;99.90;;;;;;4959596;28;20085;-77
2023/06/07 04:59:15;;;;;;;13.60;3.05;;;12.90;99.90;;;;;;4957734;29;20516;-78
2023/06/07 05:02:01;;;;;;;11.77;2.38;;;12.90;99.90;;;;;;4958238;29;20055;-75
2023/06/07 05:04:48;;;;;;;12.32;3.38;;;12.90;99.90;;;;;;4959094;28;20110;-76
2023/06/07 05:07:34;;;;;;;9.20;3.15;;;13.00;99.90;;;;;;4957744;28;20467;-75
2023/06/07 05:10:20;;;;;;;14.50;2.67;;;13.00;99.90;;;;;;4958509;28;20055;-75
2023/06/07 05:13:06;;;;;;;12.90;3.17;;;13.00;99.90;;;;;;4958113;28;20070;-75
2023/06/07 05:15:54;;;;;;;14.68;3.10;;;13.00;99.90;;;;;;4957826;28;20444;-80
2023/06/07 05:18:42;;;;;;;11.80;2.40;;;13.00;99.90;;;;;;4958959;28;20098;-76
2023/06/07 05:21:28;;;;;;;10.73;2.40;;;13.10;99.90;;;;;;4958698;28;20051;-77
2023/06/07 05:24:14;;;;;;;13.68;2.47;;;13.10;99.90;;;;;;4942099;28;20055;-77
2023/06/07 05:27:00;;;;;;;9.55;2.13;;;13.20;99.90;;;;;;4941283;29;20141;-75
2023/06/07 05:29:46;;;;;;;16.75;3.40;;;13.20;99.90;;;;;;4958557;29;20043;-78
2023/06/07 05:32:33;;;;;;;10.35;2.70;;;13.30;99.90;;;;;;4958341;28;20098;-76
2023/06/07 05:35:19;;;;;;;13.07;3.58;;;13.30;99.90;;;;;;4959831;28;20051;-77
2023/06/07 05:38:08;;;;;;;11.18;3.13;;;13.40;99.90;;;;;;4960239;28;20070;-75
2023/06/07 05:40:55;;;;;;;7.47;2.53;;;13.40;99.90;;;;;;4960307;28;20106;-77
2023/06/07 05:43:42;;;;;;;10.77;2.42;;;13.50;99.90;;;;;;4942231;28;20526;-74
2023/06/07 05:46:28;;;;;;;9.93;2.70;;;13.50;99.90;;;;;;4958904;28;20059;-74
2023/06/07 05:49:14;;;;;;;10.45;2.58;;;13.50;99.90;;;;;;4958869;28;20412;-75
2023/06/07 05:52:00;;;;;;;13.10;2.38;;;13.60;99.90;;;;;;4959820;28;20491;-74
2023/06/07 05:54:51;;;;;;;11.50;3.38;;;13.60;99.90;;;;;;4959141;28;20061;-75
2023/06/07 05:57:37;;;;;;;10.27;3.53;;;13.70;99.90;;;;;;4939834;28;20051;-79
2023/06/07 06:00:24;;;;;;;15.02;2.40;;;13.70;99.90;;;;;;4956457;28;20039;-79
2023/06/07 06:03:10;;;;;;;13.45;2.88;;;13.70;99.90;;;;;;4955840;28;20051;-74
2023/06/07 06:05:57;;;;;;;11.25;2.78;;;13.70;99.90;;;;;;4954434;29;20059;-75
2023/06/07 06:08:45;;;;;;;12.88;2.70;;;13.80;99.90;;;;;;4955559;28;20122;-75
2023/06/07 06:11:31;;;;;;;17.23;2.80;;;13.90;99.90;;;;;;4956113;28;20066;-74
2023/06/07 06:14:17;;;;;;;13.45;3.15;;;14.00;99.90;;;;;;4938671;28;20146;-78
2023/06/07 06:17:04;;;;;;;10.88;2.15;;;14.00;99.90;;;;;;4953850;28;20648;-75
2023/06/07 06:19:50;;;;;;;15.02;2.95;;;14.00;99.90;;;;;;4954837;29;20463;-78
2023/06/07 06:22:37;;;;;;;15.18;2.88;;;14.10;99.90;;;;;;4954733;28;20138;-76
2023/06/07 06:25:24;;;;;;;12.98;2.42;;;14.10;99.90;;;;;;4937366;29;20059;-75
2023/06/07 06:28:10;;;;;;;11.65;2.60;;;14.10;99.90;;;;;;4954905;28;20135;-74
2023/06/07 06:30:56;;;;;;;11.95;3.03;;;14.20;99.90;;;;;;4954330;29;20110;-79
2023/06/07 06:33:43;;;;;;;11.00;2.40;;;14.30;99.90;;;;;;4937538;29;20059;-77
2023/06/07 06:36:29;;;;;;;10.50;2.08;;;14.30;99.90;;;;;;4954629;28;20047;-74
2023/06/07 06:39:15;;;;;;;11.63;2.45;;;14.40;99.90;;;;;;4954769;28;20113;-75
2023/06/07 06:42:02;;;;;;;11.52;2.85;;;14.40;99.90;;;;;;4953268;28;20054;-76
2023/06/07 06:44:48;;;;;;;12.15;3.42;;;14.40;99.90;;;;;;4937502;29;20043;-75
2023/06/07 06:47:36;;;;;;;13.65;3.00;;;14.50;99.90;;;;;;4954366;28;20047;-74
2023/06/07 06:50:22;;;;;;;12.65;2.70;;;14.50;99.90;;;;;;4954451;28;20063;-76
2023/06/07 06:53:08;;;;;;;13.45;2.88;;;14.50;99.90;;;;;;4953535;29;20051;-75
2023/06/07 06:55:55;;;;;;;12.57;3.33;;;14.50;99.90;;;;;;4954325;29;20079;-74
2023/06/07 06:58:41;;;;;;;12.02;2.58;;;14.60;99.90;;;;;;4936636;29;20063;-74
2023/06/07 07:01:45;;;;;;;11.98;2.97;;;14.60;99.90;;;;;;4953890;29;20061;-75
2023/06/07 07:04:32;;;;;;;13.00;2.50;;;14.60;99.90;;;;;;4954155;28;20073;-76
2023/06/07 07:07:18;;;;;;;11.77;3.13;;;14.70;99.90;;;;;;4937329;29;20059;-76
2023/06/07 07:10:05;;;;;;;10.60;3.03;;;14.70;99.90;;;;;;4952799;28;20062;-75
2023/06/07 07:12:51;;;;;;;13.50;2.78;;;14.70;99.90;;;;;;4954579;28;20146;-74
2023/06/07 07:15:37;;;;;;;14.65;3.35;;;14.70;99.90;;;;;;4952969;29;20122;-74
2023/06/07 07:18:24;;;;;;;15.50;3.47;;;14.70;99.90;;;;;;4954032;28;20051;-74
2023/06/07 07:21:10;;;;;;;10.98;2.60;;;14.70;99.90;;;;;;4953804;28;20583;-74
2023/06/07 07:23:56;;;;;;;11.85;3.58;;;14.90;99.90;;;;;;4953577;28;20102;-75
2023/06/07 07:26:43;;;;;;;10.95;2.33;;;15.10;99.90;;;;;;4953121;29;20110;-74
2023/06/07 07:29:29;;;;;;;14.15;3.08;;;15.30;99.90;;;;;;4954285;28;20134;-76
2023/06/07 07:32:15;;;;;;;11.98;3.47;;;15.40;99.90;;;;;;4954030;28;20065;-77
2023/06/07 07:35:01;;;;;;;12.70;2.78;;;15.70;99.90;;;;;;4953054;29;20133;-75
2023/06/07 07:37:49;;;;;;;11.57;3.13;;;15.70;99.90;;;;;;4953357;28;20043;-78
2023/06/07 07:40:35;;;;;;;10.95;2.83;;;15.80;99.90;;;;;;4952629;28;20071;-75
2023/06/07 07:43:21;;;;;;;9.60;2.90;;;15.80;99.90;;;;;;4953086;29;20050;-76
2023/06/07 07:46:08;;;;;;;9.38;2.70;;;15.80;99.90;;;;;;4953520;28;20048;-76
2023/06/07 07:48:54;;;;;;;7.03;2.30;;;15.80;99.90;;;;;;4953270;28;20574;-75
2023/06/07 07:51:41;;;;;;;14.32;3.22;;;15.80;99.90;;;;;;4936479;29;20478;-75
2023/06/07 07:54:29;;;;;;;16.27;3.20;;;15.90;99.90;;;;;;4953976;28;20133;-75
2023/06/07 07:57:15;;;;;;;12.02;2.95;;;16.10;99.90;;;;;;4953179;28;20062;-77
2023/06/07 08:00:05;;;;;;;15.15;2.95;;;16.10;99.90;;;;;;4936262;29;20055;-75
2023/06/07 08:02:51;;;;;;;10.55;2.78;;;16.20;99.90;;;;;;4953576;28;20051;-75
2023/06/07 08:05:37;;;;;;;10.80;2.85;;;16.20;99.90;;;;;;4953163;28;20051;-77
2023/06/07 08:08:24;;;;;;;10.80;2.70;;;16.30;99.90;;;;;;4951875;28;20566;-78
2023/06/07 08:11:10;;;;;;;8.77;2.78;;;16.20;99.90;;;;;;4952266;28;20064;-75
2023/06/07 08:13:56;;;;;;;15.05;2.78;;;16.30;99.90;;;;;;4952462;28;20545;-77
2023/06/07 08:16:42;;;;;;;11.27;2.28;;;16.20;99.90;;;;;;4953876;28;20047;-75
2023/06/07 08:19:28;;;;;;;10.90;2.58;;;16.30;99.90;;;;;;4953091;28;20051;-77
2023/06/07 08:22:15;;;;;;;9.45;3.22;;;16.50;99.90;;;;;;4953247;28;20054;-78
2023/06/07 08:25:01;;;;;;;8.60;3.05;;;16.60;99.90;;;;;;4953098;28;20142;-78
2023/06/07 08:27:48;;;;;;;10.05;2.10;;;16.90;99.90;;;;;;4953051;28;20526;-79
2023/06/07 08:30:34;;;;;;;12.63;3.22;;;17.20;99.90;;;;;;4952869;28;20542;-75
2023/06/07 08:33:20;;;;;;;12.43;3.05;;;17.30;99.90;;;;;;4936010;28;20066;-78
2023/06/07 08:36:06;;;;;;;10.50;2.50;;;17.30;99.90;;;;;;4952880;28;20055;-76
2023/06/07 08:38:52;;;;;;;10.23;3.17;;;17.30;99.90;;;;;;4953092;28;20052;-77
2023/06/07 08:41:39;;;;;;;12.27;2.72;;;17.30;99.90;;;;;;4954127;28;20454;-77
2023/06/07 08:44:25;;;;;;;16.02;3.65;;;17.30;99.90;;;;;;4952628;28;20857;-78
2023/06/07 08:47:13;;;;;;;10.90;3.17;;;17.40;99.90;;;;;;4953134;28;20055;-77
2023/06/07 08:50:00;;;;;;;8.45;2.60;;;17.40;99.90;;;;;;4953046;28;20050;-76
2023/06/07 08:52:50;;;;;;;10.25;3.00;;;17.50;99.90;;;;;;4951919;28;20055;-76
2023/06/07 08:55:37;;;;;;;10.60;2.17;;;17.60;99.90;;;;;;4952593;28;20063;-77
2023/06/07 08:58:24;;;;;;;9.57;2.40;;;17.70;99.90;;;;;;4952780;28;20138;-76
2023/06/07 09:01:11;;;;;;;12.23;3.35;;;18.00;99.90;;;;;;4953562;28;20822;-77
2023/06/07 09:03:57;;;;;;;11.05;2.75;;;18.10;99.90;;;;;;4952504;29;20086;-78
2023/06/07 09:06:44;;;;;;;13.50;3.70;;;18.10;99.80;;;;;;4952639;28;20574;-78
2023/06/07 09:09:30;;;;;;;12.63;2.45;;;18.30;99.70;;;;;;4953129;28;20066;-77
2023/06/07 09:12:17;;;;;;;12.23;2.90;;;18.30;99.40;;;;;;4954108;28;20047;-77
2023/06/07 09:15:05;;;;;;;10.48;3.05;;;18.10;99.40;;;;;;4934918;29;20367;-78
2023/06/07 09:17:58;;;;;;;14.32;2.65;;;18.00;99.30;;;;;;4952819;28;20059;-76
2023/06/07 09:20:44;;;;;;;11.25;2.88;;;18.20;99.40;;;;;;4936887;28;20224;-76
2023/06/07 09:23:39;;;;;;;11.60;2.90;;;18.40;99.50;;;;;;4953861;28;20054;-76
2023/06/07 09:26:38;;;;;;;16.48;3.40;;;18.60;99.20;;;;;;4936708;28;20146;-79
2023/06/07 09:29:29;;;;;;;8.98;2.75;;;18.80;98.80;;;;;;4935886;29;20142;-79
2023/06/07 09:32:25;;;;;;;7.15;2.17;;;18.90;98.70;;;;;;4952661;28;20495;-79
2023/06/07 09:35:14;;;;;;;11.57;2.72;;;18.90;98.00;;;;;;4957109;28;20051;-78
2023/06/07 09:38:01;;;;;;;12.52;3.78;;;18.90;98.30;;;;;;4956010;28;20047;-77
2023/06/07 09:40:51;;;;;;;15.30;3.60;;;18.90;98.00;;;;;;4956569;28;20487;-78
2023/06/07 09:43:50;;;;;;;12.77;2.88;;;19.00;97.90;;;;;;4955769;28;20102;-77
2023/06/07 09:46:36;;;;;;;8.20;2.80;;;19.00;97.00;;;;;;4957191;28;20411;-79
2023/06/07 09:49:34;;;;;;;9.13;3.03;;;19.10;97.80;;;;;;4954853;28;20528;-79
2023/06/07 09:52:20;;;;;;;15.02;4.35;;;19.20;97.00;;;;;;4957162;28;20043;-78
2023/06/07 09:55:08;;;;;;;16.15;3.20;;;19.10;97.60;;;;;;4957212;28;20051;-78
2023/06/07 09:57:57;;;;;;;11.77;2.58;;;19.00;97.70;;;;;;4938486;29;20405;-78
2023/06/07 10:00:44;;;;;;;18.27;4.75;;;19.00;97.60;;;;;;4956552;28;20406;-76
2023/06/07 10:03:30;;;;;;;11.73;3.05;;;19.10;97.80;;;;;;4955093;28;20057;-77
2023/06/07 10:06:17;;;;;;;15.18;3.05;;;19.20;97.50;;;;;;4955914;28;20051;-76
2023/06/07 10:09:05;;;;;;;13.85;2.60;;;19.40;97.40;;;;;;4956537;28;20055;-75
2023/06/07 10:11:57;;;;;;;9.50;2.70;;;19.80;97.00;;;;;;4954802;28;20499;-79
2023/06/07 10:14:46;;;;;;;10.40;2.78;;;20.10;96.30;;;;;;4937789;29;20648;-79
2023/06/07 10:17:45;;;;;;;13.32;2.97;;;20.10;96.40;;;;;;4938336;28;20047;-76
2023/06/07 10:20:36;;;;;;;16.80;3.15;;;20.10;94.90;;;;;;4955311;28;20055;-76
2023/06/07 10:23:35;;;;;;;18.73;3.38;;;19.90;95.90;;;;;;4955596;28;20047;-76
2023/06/07 10:26:27;;;;;;;8.75;2.72;;;20.20;95.70;;;;;;4955146;28;20145;-77
2023/06/07 10:29:21;;;;;;;9.93;3.40;;;20.40;95.20;;;;;;4955139;28;20058;-77
2023/06/07 10:32:10;;;;;;;12.48;2.65;;;20.70;94.80;;;;;;4954482;28;20047;-79
2023/06/07 10:35:00;;;;;;;10.63;3.50;;;21.10;94.90;;;;;;4955559;28;20055;-78
2023/06/07 10:37:53;;;;;;;15.43;3.33;;;21.20;94.70;;;;;;4956543;28;20435;-79
2023/06/07 10:40:40;;;;;;;10.63;2.67;;;21.30;94.40;;;;;;4938939;28;20135;-78
2023/06/07 10:43:28;;;;;;;11.77;3.17;;;21.50;94.20;;;;;;4953389;28;20059;-79
2023/06/07 10:46:23;;;;;;;15.27;3.40;;;21.40;94.20;;;;;;4955028;28;20047;-78
2023/06/07 10:49:36;;;;;;;15.93;3.17;;;21.80;93.90;;;;;;4954368;29;20059;-77
2023/06/07 10:52:23;;;;;;;9.80;3.75;;;21.70;93.40;;;;;;4955874;28;20047;-77
2023/06/07 10:55:31;;;;;;;12.70;3.35;;;21.90;93.40;;;;;;4953608;28;20059;-78
2023/06/07 10:58:35;;;;;;;13.02;3.40;;;22.30;92.90;;;;;;4955021;28;20047;-79
2023/06/07 11:01:23;;;;;;;11.50;3.60;;;22.70;92.00;;;;;;4938028;28;20059;-77
2023/06/07 11:04:35;;;;;;;9.88;2.53;;;22.90;92.40;;;;;;4955272;28;20070;-77
2023/06/07 11:07:30;;;;;;;9.10;3.00;;;23.10;91.40;;;;;;4954276;28;20534;-77
2023/06/07 11:10:16;;;;;;;10.05;3.60;;;23.10;91.40;;;;;;4954288;28;20058;-77
2023/06/07 11:13:03;;;;;;;10.93;2.50;;;23.40;91.40;;;;;;4953943;28;20062;-78
2023/06/07 11:15:49;;;;;;;10.73;2.50;;;23.60;91.40;;;;;;4954586;28;20110;-77
2023/06/07 11:18:55;;;;;;;10.25;2.85;;;23.40;90.80;;;;;;4954149;28;20051;-78
2023/06/07 11:22:05;;;;;;;8.82;2.88;;;24.00;89.90;;;;;;4953962;28;20063;-77
2023/06/07 11:24:51;;;;;;;11.10;3.22;;;24.00;87.50;;;;;;4954181;28;20094;-77
2023/06/07 11:27:37;;;;;;;13.82;3.58;;;23.60;90.20;;;;;;4953056;28;20504;-78
2023/06/07 11:30:23;;;;;;;9.85;2.67;;;23.40;90.20;;;;;;4954649;28;20446;-79
2023/06/07 11:33:16;;;;;;;10.73;2.95;;;23.40;90.10;;;;;;4953722;28;20051;-78
2023/06/07 11:36:05;;;;;;;10.73;2.97;;;23.10;90.60;;;;;;4955006;28;20121;-77
2023/06/07 11:38:54;;;;;;;14.98;2.88;;;23.60;90.50;;;;;;4954261;28;20759;-77
2023/06/07 11:41:41;;;;;;;11.05;3.75;;;24.00;89.20;;;;;;4953724;28;20053;-77
2023/06/07 11:44:28;;;;;;;17.55;3.85;;;24.00;87.90;;;;;;4935827;29;20095;-78
2023/06/07 11:47:14;;;;;;;9.57;2.78;;;24.00;88.50;;;;;;4940336;28;20094;-78
2023/06/07 11:50:00;;;;;;;13.35;3.10;;;24.00;87.70;;;;;;4936423;29;20487;-77
2023/06/07 11:52:46;;;;;;;10.80;3.92;;;24.00;87.30;;;;;;4953533;28;20058;-77
2023/06/07 11:55:34;;;;;;;14.27;3.10;;;24.00;87.30;;;;;;4953926;28;20039;-77
2023/06/07 11:58:20;;;;;;;9.40;2.78;;;23.80;87.60;;;;;;4954745;28;20095;-77
2023/06/07 12:01:07;;;;;;;10.65;3.05;;;23.90;87.50;;;;;;4953557;28;20058;-77
2023/06/07 12:03:55;;;;;;;12.38;2.95;;;23.60;87.00;;;;;;4953594;28;20055;-77
2023/06/07 12:06:42;;;;;;;11.45;2.60;;;23.50;87.70;;;;;;4953252;28;20459;-77
2023/06/07 12:09:28;;;;;;;7.88;2.95;;;23.60;87.00;;;;;;4953195;28;20055;-78
2023/06/07 12:12:14;;;;;;;8.13;2.75;;;23.60;87.10;;;;;;4952796;28;20550;-77
2023/06/07 12:15:04;;;;;;;9.90;2.58;;;23.60;87.70;;;;;;4935703;29;20173;-78
2023/06/07 12:17:51;;;;;;;8.15;3.33;;;23.60;86.50;;;;;;4951792;28;20460;-77
2023/06/07 12:20:37;;;;;;;12.18;2.80;;;23.50;87.10;;;;;;4935833;29;20051;-77
2023/06/07 12:23:23;;;;;;;8.63;2.83;;;23.40;87.40;;;;;;4937073;28;20518;-77
2023/06/07 12:26:10;;;;;;;10.45;2.65;;;23.30;87.40;;;;;;4953164;28;20079;-77
2023/06/07 12:29:01;;;;;;;7.60;2.72;;;23.20;86.60;;;;;;4953182;28;20113;-77
2023/06/07 12:31:51;;;;;;;12.50;3.40;;;23.30;86.90;;;;;;4935662;29;20055;-78
2023/06/07 12:34:42;;;;;;;13.13;4.13;;;23.30;86.70;;;;;;4953099;28;20062;-78
2023/06/07 12:37:28;;;;;;;8.45;2.40;;;23.70;86.00;;;;;;4954119;28;20047;-76
2023/06/07 12:40:15;;;;;;;8.77;2.92;;;23.70;86.50;;;;;;4935136;29;20055;-77
2023/06/07 12:43:01;;;;;;;12.07;2.65;;;24.00;85.50;;;;;;4952993;28;20106;-76
2023/06/07 12:45:47;;;;;;;13.48;3.38;;;24.00;85.70;;;;;;4952959;28;20055;-76
2023/06/07 12:48:34;;;;;;;8.88;2.45;;;23.80;84.90;;;;;;4952808;28;20141;-76
2023/06/07 12:51:20;;;;;;;10.15;3.00;;;24.00;84.50;;;;;;4952937;28;20110;-76
2023/06/07 12:54:06;;;;;;;10.25;2.63;;;24.10;84.50;;;;;;4953053;28;20057;-77
2023/06/07 12:56:53;;;;;;;10.43;2.63;;;24.20;85.10;;;;;;4952883;28;20097;-76
2023/06/07 12:59:39;;;;;;;13.10;3.28;;;24.50;84.30;;;;;;4952523;28;20102;-77
2023/06/07 13:02:25;;;;;;;9.27;2.83;;;24.60;83.20;;;;;;4950510;29;20526;-77
2023/06/07 13:05:12;;;;;;;10.55;2.58;;;24.90;84.30;;;;;;4952413;28;20142;-75
2023/06/07 13:07:58;;;;;;;7.93;2.72;;;25.30;83.70;;;;;;4955625;28;20067;-79
2023/06/07 13:10:44;;;;;;;8.82;3.00;;;25.40;81.80;;;;;;4955413;29;20102;-76
2023/06/07 13:13:31;;;;;;;9.80;3.15;;;25.20;80.50;;;;;;4956054;28;20063;-76
2023/06/07 13:16:19;;;;;;;11.57;2.78;;;25.30;80.20;;;;;;4938709;29;20051;-76
2023/06/07 13:19:05;;;;;;;8.77;3.20;;;25.10;80.30;;;;;;4956595;28;20091;-76
2023/06/07 13:21:51;;;;;;;8.45;2.83;;;25.20;80.80;;;;;;4955143;29;20067;-76
2023/06/07 13:24:37;;;;;;;8.93;2.90;;;25.00;81.10;;;;;;4956190;28;20098;-75
2023/06/07 13:27:26;;;;;;;7.85;2.63;;;25.20;80.60;;;;;;4954539;29;20055;-76
2023/06/07 13:30:12;;;;;;;11.05;3.78;;;25.10;80.20;;;;;;4956227;28;20448;-76
2023/06/07 13:32:58;;;;;;;11.48;3.92;;;25.50;79.30;;;;;;4956520;28;20055;-76
2023/06/07 13:35:45;;;;;;;12.50;3.45;;;26.00;79.70;;;;;;4955843;28;20055;-78
2023/06/07 13:38:32;;;;;;;11.68;3.88;;;25.80;78.60;;;;;;4955994;28;20126;-78
2023/06/07 13:41:18;;;;;;;28.27;3.90;;;25.40;78.60;;;;;;4956885;28;20055;-76
2023/06/07 13:44:04;;;;;;;8.85;2.08;;;25.80;79.30;;;;;;4956004;28;20058;-78
2023/06/07 13:46:50;;;;;;;11.95;3.03;;;25.70;78.40;;;;;;4955391;29;20167;-76
2023/06/07 13:49:37;;;;;;;8.88;3.00;;;25.70;79.20;;;;;;4956084;29;20047;-76
2023/06/07 13:52:23;;;;;;;11.25;3.60;;;26.30;77.90;;;;;;4955894;28;20156;-78
2023/06/07 13:55:09;;;;;;;11.43;3.20;;;26.40;77.00;;;;;;4955833;28;20051;-79
2023/06/07 13:57:56;;;;;;;10.30;2.75;;;26.50;76.40;;;;;;4955745;28;20058;-76
2023/06/07 14:00:42;;;;;;;9.40;2.83;;;26.10;76.60;;;;;;4955890;28;20055;-76
2023/06/07 14:03:32;;;;;;;8.88;2.72;;;26.10;76.50;;;;;;4956187;28;20059;-77
2023/06/07 14:06:21;;;;;;;10.27;3.03;;;26.30;76.50;;;;;;4956883;28;20051;-76
2023/06/07 14:09:07;;;;;;;11.65;3.20;;;26.10;76.20;;;;;;4938044;29;20055;-77
2023/06/07 14:11:53;;;;;;;13.52;3.33;;;26.20;76.00;;;;;;4955662;28;20414;-76
2023/06/07 14:14:39;;;;;;;9.27;3.40;;;26.10;76.10;;;;;;4955087;28;20530;-77
2023/06/07 14:17:26;;;;;;;9.10;3.33;;;26.00;76.70;;;;;;4955865;28;20570;-77
2023/06/07 14:20:12;;;;;;;14.77;3.72;;;25.90;76.40;;;;;;4953761;29;20118;-76
2023/06/07 14:22:58;;;;;;;12.73;3.30;;;26.30;75.90;;;;;;4953931;29;20055;-78
2023/06/07 14:25:44;;;;;;;10.70;3.20;;;26.80;74.50;;;;;;4955477;28;20049;-77